sensor_id;sensor_type;location;lat;lon;timestamp;P1;durP1;ratioP1;P2;durP2;ratioP2
71148;SDS011;59072;42.144;25.200;2023-01-31T00:03:40;63.92;;;28.35;;
71148;SDS011;59072;42.144;25.200;2023-01-31T00:06:15;54.97;;;24.27;;
71148;SDS011;59072;42.144;25.200;2023-01-31T00:08:42;52.45;;;23.73;;
71148;SDS011;59072;42.144;25.200;2023-01-31T00:11:09;82.35;;;41.85;;
71148;SDS011;59072;42.144;25.200;2023-01-31T00:13:35;83.57;;;41.80;;
71148;SDS011;59072;42.144;25.200;2023-01-31T00:16:01;43.17;;;19.58;;
71148;SDS011;59072;42.144;25.200;2023-01-31T00:18:27;48.72;;;20.98;;
71148;SDS011;59072;42.144;25.200;2023-01-31T00:20:53;40.38;;;17.92;;
71148;SDS011;59072;42.144;25.200;2023-01-31T00:23:18;41.92;;;18.85;;
71148;SDS011;59072;42.144;25.200;2023-01-31T00:25:44;39.55;;;18.08;;
71148;SDS011;59072;42.144;25.200;2023-01-31T00:28:09;48.88;;;19.90;;
71148;SDS011;59072;42.144;25.200;2023-01-31T00:30:34;50.42;;;20.30;;
71148;SDS011;59072;42.144;25.200;2023-01-31T00:33:00;57.45;;;26.90;;
71148;SDS011;59072;42.144;25.200;2023-01-31T00:35:25;54.20;;;25.42;;
71148;SDS011;59072;42.144;25.200;2023-01-31T00:37:51;47.35;;;23.02;;
71148;SDS011;59072;42.144;25.200;2023-01-31T00:40:16;52.95;;;22.27;;
71148;SDS011;59072;42.144;25.200;2023-01-31T00:42:42;51.55;;;21.83;;
71148;SDS011;59072;42.144;25.200;2023-01-31T00:45:08;54.63;;;21.40;;
71148;SDS011;59072;42.144;25.200;2023-01-31T00:47:34;57.28;;;25.55;;
71148;SDS011;59072;42.144;25.200;2023-01-31T00:49:59;51.42;;;23.38;;
71148;SDS011;59072;42.144;25.200;2023-01-31T00:52:25;84.47;;;40.88;;
71148;SDS011;59072;42.144;25.200;2023-01-31T00:54:50;56.88;;;28.08;;
71148;SDS011;59072;42.144;25.200;2023-01-31T00:57:15;48.60;;;20.40;;
71148;SDS011;59072;42.144;25.200;2023-01-31T00:59:41;42.20;;;19.27;;
71148;SDS011;59072;42.144;25.200;2023-01-31T01:02:06;42.67;;;17.85;;
71148;SDS011;59072;42.144;25.200;2023-01-31T01:04:32;48.00;;;23.88;;
71148;SDS011;59072;42.144;25.200;2023-01-31T01:06:57;46.95;;;21.50;;
71148;SDS011;59072;42.144;25.200;2023-01-31T01:09:23;45.63;;;19.50;;
71148;SDS011;59072;42.144;25.200;2023-01-31T01:11:49;44.78;;;20.08;;
71148;SDS011;59072;42.144;25.200;2023-01-31T01:14:14;41.88;;;18.90;;
71148;SDS011;59072;42.144;25.200;2023-01-31T01:16:40;43.17;;;16.85;;
71148;SDS011;59072;42.144;25.200;2023-01-31T01:19:09;45.25;;;19.98;;
71148;SDS011;59072;42.144;25.200;2023-01-31T01:21:39;42.10;;;18.60;;
71148;SDS011;59072;42.144;25.200;2023-01-31T01:24:11;44.50;;;19.05;;
71148;SDS011;59072;42.144;25.200;2023-01-31T01:26:41;48.92;;;22.65;;
71148;SDS011;59072;42.144;25.200;2023-01-31T01:29:07;54.17;;;24.75;;
71148;SDS011;59072;42.144;25.200;2023-01-31T01:31:33;51.00;;;23.25;;
71148;SDS011;59072;42.144;25.200;2023-01-31T01:34:03;48.50;;;21.75;;
71148;SDS011;59072;42.144;25.200;2023-01-31T01:36:35;50.08;;;21.10;;
71148;SDS011;59072;42.144;25.200;2023-01-31T01:39:02;43.45;;;20.73;;
71148;SDS011;59072;42.144;25.200;2023-01-31T01:41:30;44.95;;;19.75;;
71148;SDS011;59072;42.144;25.200;2023-01-31T01:43:58;40.58;;;17.27;;
71148;SDS011;59072;42.144;25.200;2023-01-31T01:48:58;37.10;;;16.08;;
71148;SDS011;59072;42.144;25.200;2023-01-31T01:51:28;34.85;;;14.95;;
71148;SDS011;59072;42.144;25.200;2023-01-31T01:53:56;37.58;;;16.88;;
71148;SDS011;59072;42.144;25.200;2023-01-31T01:56:29;39.17;;;16.77;;
71148;SDS011;59072;42.144;25.200;2023-01-31T01:59:02;70.15;;;25.67;;
71148;SDS011;59072;42.144;25.200;2023-01-31T02:01:32;71.55;;;24.98;;
71148;SDS011;59072;42.144;25.200;2023-01-31T02:04:00;80.55;;;25.15;;
71148;SDS011;59072;42.144;25.200;2023-01-31T02:06:29;59.95;;;21.15;;
71148;SDS011;59072;42.144;25.200;2023-01-31T02:08:55;47.95;;;19.60;;
71148;SDS011;59072;42.144;25.200;2023-01-31T02:11:22;43.55;;;17.98;;
71148;SDS011;59072;42.144;25.200;2023-01-31T02:13:51;42.10;;;17.27;;
71148;SDS011;59072;42.144;25.200;2023-01-31T02:16:20;36.72;;;15.18;;
71148;SDS011;59072;42.144;25.200;2023-01-31T02:18:45;40.65;;;16.90;;
71148;SDS011;59072;42.144;25.200;2023-01-31T02:27:07;33.47;;;15.82;;
71148;SDS011;59072;42.144;25.200;2023-01-31T02:38:26;57.97;;;23.67;;
71148;SDS011;59072;42.144;25.200;2023-01-31T02:40:50;80.78;;;28.88;;
71148;SDS011;59072;42.144;25.200;2023-01-31T02:43:43;67.63;;;24.95;;
71148;SDS011;59072;42.144;25.200;2023-01-31T02:47:08;54.53;;;22.17;;
71148;SDS011;59072;42.144;25.200;2023-01-31T02:49:49;45.95;;;21.15;;
71148;SDS011;59072;42.144;25.200;2023-01-31T02:52:47;49.42;;;21.90;;
71148;SDS011;59072;42.144;25.200;2023-01-31T02:58:21;71.90;;;28.42;;
71148;SDS011;59072;42.144;25.200;2023-01-31T03:00:54;49.83;;;22.30;;
71148;SDS011;59072;42.144;25.200;2023-01-31T03:03:23;45.20;;;21.17;;
71148;SDS011;59072;42.144;25.200;2023-01-31T03:06:08;48.08;;;21.02;;
71148;SDS011;59072;42.144;25.200;2023-01-31T03:11:51;47.72;;;21.90;;
71148;SDS011;59072;42.144;25.200;2023-01-31T03:22:44;49.13;;;20.88;;
71148;SDS011;59072;42.144;25.200;2023-01-31T03:25:13;104.15;;;45.58;;
71148;SDS011;59072;42.144;25.200;2023-01-31T03:27:43;89.25;;;39.03;;
71148;SDS011;59072;42.144;25.200;2023-01-31T03:30:13;83.35;;;34.97;;
71148;SDS011;59072;42.144;25.200;2023-01-31T03:32:42;74.25;;;33.80;;
71148;SDS011;59072;42.144;25.200;2023-01-31T03:35:12;204.02;;;82.20;;
71148;SDS011;59072;42.144;25.200;2023-01-31T03:37:46;218.07;;;76.38;;
71148;SDS011;59072;42.144;25.200;2023-01-31T03:40:26;105.05;;;42.00;;
71148;SDS011;59072;42.144;25.200;2023-01-31T03:42:56;53.63;;;24.05;;
71148;SDS011;59072;42.144;25.200;2023-01-31T03:48:10;47.80;;;20.38;;
71148;SDS011;59072;42.144;25.200;2023-01-31T03:50:52;51.13;;;21.90;;
71148;SDS011;59072;42.144;25.200;2023-01-31T03:56:15;47.70;;;23.30;;
71148;SDS011;59072;42.144;25.200;2023-01-31T03:58:46;42.33;;;18.55;;
71148;SDS011;59072;42.144;25.200;2023-01-31T04:01:15;76.32;;;40.45;;
71148;SDS011;59072;42.144;25.200;2023-01-31T04:03:44;49.25;;;23.15;;
71148;SDS011;59072;42.144;25.200;2023-01-31T04:06:15;42.33;;;20.77;;
71148;SDS011;59072;42.144;25.200;2023-01-31T04:08:41;41.97;;;19.02;;
71148;SDS011;59072;42.144;25.200;2023-01-31T04:11:09;45.17;;;19.20;;
71148;SDS011;59072;42.144;25.200;2023-01-31T04:13:37;43.25;;;20.52;;
71148;SDS011;59072;42.144;25.200;2023-01-31T04:16:03;40.80;;;19.15;;
71148;SDS011;59072;42.144;25.200;2023-01-31T04:18:29;40.28;;;18.90;;
71148;SDS011;59072;42.144;25.200;2023-01-31T04:20:54;39.42;;;18.60;;
71148;SDS011;59072;42.144;25.200;2023-01-31T04:23:20;47.08;;;19.05;;
71148;SDS011;59072;42.144;25.200;2023-01-31T04:25:45;42.08;;;17.60;;
71148;SDS011;59072;42.144;25.200;2023-01-31T04:28:10;41.10;;;18.25;;
71148;SDS011;59072;42.144;25.200;2023-01-31T04:30:36;41.28;;;18.88;;
71148;SDS011;59072;42.144;25.200;2023-01-31T04:33:01;35.38;;;16.92;;
71148;SDS011;59072;42.144;25.200;2023-01-31T04:35:27;39.58;;;18.75;;
71148;SDS011;59072;42.144;25.200;2023-01-31T04:37:53;36.97;;;16.08;;
71148;SDS011;59072;42.144;25.200;2023-01-31T04:40:18;38.17;;;17.05;;
71148;SDS011;59072;42.144;25.200;2023-01-31T04:42:44;44.13;;;18.33;;
71148;SDS011;59072;42.144;25.200;2023-01-31T04:45:09;47.25;;;21.63;;
71148;SDS011;59072;42.144;25.200;2023-01-31T04:47:35;50.00;;;26.05;;
71148;SDS011;59072;42.144;25.200;2023-01-31T04:50:01;45.45;;;24.88;;
71148;SDS011;59072;42.144;25.200;2023-01-31T04:52:26;45.80;;;20.83;;
71148;SDS011;59072;42.144;25.200;2023-01-31T04:54:51;45.85;;;18.08;;
71148;SDS011;59072;42.144;25.200;2023-01-31T04:57:17;42.80;;;20.42;;
71148;SDS011;59072;42.144;25.200;2023-01-31T04:59:42;43.65;;;21.42;;
71148;SDS011;59072;42.144;25.200;2023-01-31T05:02:08;45.10;;;22.50;;
71148;SDS011;59072;42.144;25.200;2023-01-31T05:04:33;52.67;;;25.50;;
71148;SDS011;59072;42.144;25.200;2023-01-31T05:06:58;47.45;;;22.73;;
71148;SDS011;59072;42.144;25.200;2023-01-31T05:09:24;42.90;;;20.08;;
71148;SDS011;59072;42.144;25.200;2023-01-31T05:11:50;43.15;;;21.08;;
71148;SDS011;59072;42.144;25.200;2023-01-31T05:14:15;41.85;;;19.65;;
71148;SDS011;59072;42.144;25.200;2023-01-31T05:16:41;39.95;;;18.10;;
71148;SDS011;59072;42.144;25.200;2023-01-31T05:19:11;46.00;;;21.73;;
71148;SDS011;59072;42.144;25.200;2023-01-31T05:21:40;47.47;;;21.38;;
71148;SDS011;59072;42.144;25.200;2023-01-31T05:24:25;55.80;;;24.10;;
71148;SDS011;59072;42.144;25.200;2023-01-31T05:26:55;34.95;;;16.25;;
71148;SDS011;59072;42.144;25.200;2023-01-31T05:29:23;28.98;;;13.25;;
71148;SDS011;59072;42.144;25.200;2023-01-31T05:31:51;27.17;;;12.60;;
71148;SDS011;59072;42.144;25.200;2023-01-31T05:34:18;24.90;;;12.48;;
71148;SDS011;59072;42.144;25.200;2023-01-31T05:36:43;24.98;;;11.82;;
71148;SDS011;59072;42.144;25.200;2023-01-31T05:39:09;30.67;;;12.95;;
71148;SDS011;59072;42.144;25.200;2023-01-31T05:41:34;24.05;;;11.52;;
71148;SDS011;59072;42.144;25.200;2023-01-31T05:44:00;86.80;;;30.10;;
71148;SDS011;59072;42.144;25.200;2023-01-31T05:46:25;48.00;;;19.52;;
71148;SDS011;59072;42.144;25.200;2023-01-31T05:48:51;165.02;;;77.22;;
71148;SDS011;59072;42.144;25.200;2023-01-31T05:51:16;60.28;;;28.75;;
71148;SDS011;59072;42.144;25.200;2023-01-31T05:53:42;51.42;;;22.33;;
71148;SDS011;59072;42.144;25.200;2023-01-31T05:56:07;47.35;;;23.77;;
71148;SDS011;59072;42.144;25.200;2023-01-31T05:58:32;42.72;;;24.33;;
71148;SDS011;59072;42.144;25.200;2023-01-31T06:00:58;36.83;;;18.63;;
71148;SDS011;59072;42.144;25.200;2023-01-31T06:03:23;28.50;;;15.43;;
71148;SDS011;59072;42.144;25.200;2023-01-31T06:05:49;27.75;;;13.70;;
71148;SDS011;59072;42.144;25.200;2023-01-31T06:08:14;23.13;;;10.52;;
71148;SDS011;59072;42.144;25.200;2023-01-31T06:10:39;24.10;;;9.20;;
71148;SDS011;59072;42.144;25.200;2023-01-31T06:13:05;21.70;;;12.73;;
71148;SDS011;59072;42.144;25.200;2023-01-31T06:15:31;24.73;;;12.13;;
71148;SDS011;59072;42.144;25.200;2023-01-31T06:17:57;15.75;;;7.05;;
71148;SDS011;59072;42.144;25.200;2023-01-31T06:20:24;21.05;;;7.55;;
71148;SDS011;59072;42.144;25.200;2023-01-31T06:22:49;19.05;;;6.95;;
71148;SDS011;59072;42.144;25.200;2023-01-31T06:25:15;15.30;;;5.63;;
71148;SDS011;59072;42.144;25.200;2023-01-31T06:27:41;19.20;;;8.10;;
71148;SDS011;59072;42.144;25.200;2023-01-31T06:30:07;16.60;;;6.70;;
71148;SDS011;59072;42.144;25.200;2023-01-31T06:32:33;14.93;;;6.85;;
71148;SDS011;59072;42.144;25.200;2023-01-31T06:34:59;17.50;;;6.47;;
71148;SDS011;59072;42.144;25.200;2023-01-31T06:37:24;16.77;;;6.65;;
71148;SDS011;59072;42.144;25.200;2023-01-31T06:39:49;10.43;;;5.78;;
71148;SDS011;59072;42.144;25.200;2023-01-31T06:42:15;14.80;;;6.70;;
71148;SDS011;59072;42.144;25.200;2023-01-31T06:44:40;10.73;;;5.25;;
71148;SDS011;59072;42.144;25.200;2023-01-31T06:47:06;13.20;;;5.85;;
71148;SDS011;59072;42.144;25.200;2023-01-31T06:49:31;14.90;;;6.55;;
71148;SDS011;59072;42.144;25.200;2023-01-31T06:51:56;10.35;;;4.70;;
71148;SDS011;59072;42.144;25.200;2023-01-31T06:54:22;15.13;;;6.93;;
71148;SDS011;59072;42.144;25.200;2023-01-31T06:56:47;15.02;;;6.57;;
71148;SDS011;59072;42.144;25.200;2023-01-31T06:59:12;14.48;;;6.22;;
71148;SDS011;59072;42.144;25.200;2023-01-31T07:01:38;15.52;;;6.72;;
71148;SDS011;59072;42.144;25.200;2023-01-31T07:04:03;20.92;;;8.88;;
71148;SDS011;59072;42.144;25.200;2023-01-31T07:06:29;17.90;;;7.43;;
71148;SDS011;59072;42.144;25.200;2023-01-31T07:08:54;14.80;;;6.03;;
71148;SDS011;59072;42.144;25.200;2023-01-31T07:11:20;13.55;;;5.85;;
71148;SDS011;59072;42.144;25.200;2023-01-31T07:13:45;12.23;;;5.75;;
71148;SDS011;59072;42.144;25.200;2023-01-31T07:16:12;15.75;;;7.00;;
71148;SDS011;59072;42.144;25.200;2023-01-31T07:18:41;15.95;;;6.00;;
71148;SDS011;59072;42.144;25.200;2023-01-31T07:21:07;14.05;;;5.45;;
71148;SDS011;59072;42.144;25.200;2023-01-31T07:23:32;11.73;;;4.80;;
71148;SDS011;59072;42.144;25.200;2023-01-31T07:25:58;16.13;;;6.22;;
71148;SDS011;59072;42.144;25.200;2023-01-31T07:28:27;10.35;;;4.80;;
71148;SDS011;59072;42.144;25.200;2023-01-31T07:30:53;11.80;;;5.13;;
71148;SDS011;59072;42.144;25.200;2023-01-31T07:33:18;11.32;;;5.05;;
71148;SDS011;59072;42.144;25.200;2023-01-31T07:35:44;10.63;;;4.03;;
71148;SDS011;59072;42.144;25.200;2023-01-31T07:38:09;8.27;;;4.72;;
71148;SDS011;59072;42.144;25.200;2023-01-31T07:40:35;12.38;;;5.95;;
71148;SDS011;59072;42.144;25.200;2023-01-31T07:43:00;12.50;;;5.50;;
71148;SDS011;59072;42.144;25.200;2023-01-31T07:45:26;13.35;;;6.88;;
71148;SDS011;59072;42.144;25.200;2023-01-31T07:47:51;12.38;;;4.78;;
71148;SDS011;59072;42.144;25.200;2023-01-31T07:50:17;13.57;;;5.28;;
71148;SDS011;59072;42.144;25.200;2023-01-31T07:52:43;11.38;;;5.72;;
71148;SDS011;59072;42.144;25.200;2023-01-31T07:55:08;13.25;;;6.38;;
71148;SDS011;59072;42.144;25.200;2023-01-31T07:57:34;11.35;;;5.43;;
71148;SDS011;59072;42.144;25.200;2023-01-31T07:59:59;15.43;;;6.18;;
71148;SDS011;59072;42.144;25.200;2023-01-31T08:02:25;13.18;;;5.55;;
71148;SDS011;59072;42.144;25.200;2023-01-31T08:05:09;11.35;;;5.57;;
71148;SDS011;59072;42.144;25.200;2023-01-31T08:07:35;15.13;;;6.38;;
71148;SDS011;59072;42.144;25.200;2023-01-31T08:10:01;14.93;;;6.85;;
71148;SDS011;59072;42.144;25.200;2023-01-31T08:12:27;15.45;;;6.90;;
71148;SDS011;59072;42.144;25.200;2023-01-31T08:14:53;11.20;;;5.85;;
71148;SDS011;59072;42.144;25.200;2023-01-31T08:17:18;10.98;;;4.72;;
71148;SDS011;59072;42.144;25.200;2023-01-31T08:19:44;11.27;;;5.75;;
71148;SDS011;59072;42.144;25.200;2023-01-31T08:22:09;16.30;;;6.45;;
71148;SDS011;59072;42.144;25.200;2023-01-31T08:24:35;21.67;;;9.07;;
71148;SDS011;59072;42.144;25.200;2023-01-31T08:27:01;12.30;;;6.22;;
71148;SDS011;59072;42.144;25.200;2023-01-31T08:29:26;11.57;;;5.18;;
71148;SDS011;59072;42.144;25.200;2023-01-31T08:31:52;11.70;;;5.32;;
71148;SDS011;59072;42.144;25.200;2023-01-31T08:34:17;13.80;;;6.30;;
71148;SDS011;59072;42.144;25.200;2023-01-31T08:36:43;12.27;;;5.40;;
71148;SDS011;59072;42.144;25.200;2023-01-31T08:39:09;15.73;;;5.38;;
71148;SDS011;59072;42.144;25.200;2023-01-31T08:41:36;10.95;;;4.60;;
71148;SDS011;59072;42.144;25.200;2023-01-31T08:44:02;9.75;;;4.18;;
71148;SDS011;59072;42.144;25.200;2023-01-31T08:46:29;10.93;;;5.47;;
71148;SDS011;59072;42.144;25.200;2023-01-31T08:48:56;10.15;;;5.07;;
71148;SDS011;59072;42.144;25.200;2023-01-31T08:51:22;10.48;;;3.97;;
71148;SDS011;59072;42.144;25.200;2023-01-31T08:53:48;12.55;;;5.53;;
71148;SDS011;59072;42.144;25.200;2023-01-31T08:56:14;10.45;;;4.60;;
71148;SDS011;59072;42.144;25.200;2023-01-31T08:58:40;11.27;;;5.03;;
71148;SDS011;59072;42.144;25.200;2023-01-31T09:01:11;9.90;;;5.18;;
71148;SDS011;59072;42.144;25.200;2023-01-31T09:03:39;11.18;;;5.57;;
71148;SDS011;59072;42.144;25.200;2023-01-31T09:06:07;10.50;;;5.00;;
71148;SDS011;59072;42.144;25.200;2023-01-31T09:08:36;11.40;;;4.47;;
71148;SDS011;59072;42.144;25.200;2023-01-31T09:11:01;8.85;;;4.55;;
71148;SDS011;59072;42.144;25.200;2023-01-31T09:13:28;11.15;;;4.30;;
71148;SDS011;59072;42.144;25.200;2023-01-31T09:18:32;10.02;;;4.60;;
71148;SDS011;59072;42.144;25.200;2023-01-31T09:23:36;9.30;;;3.67;;
71148;SDS011;59072;42.144;25.200;2023-01-31T09:26:02;9.27;;;4.30;;
71148;SDS011;59072;42.144;25.200;2023-01-31T09:28:28;9.93;;;3.97;;
71148;SDS011;59072;42.144;25.200;2023-01-31T09:30:53;8.27;;;3.92;;
71148;SDS011;59072;42.144;25.200;2023-01-31T09:33:19;10.25;;;5.00;;
71148;SDS011;59072;42.144;25.200;2023-01-31T09:35:56;12.83;;;5.37;;
71148;SDS011;59072;42.144;25.200;2023-01-31T09:38:24;10.13;;;5.10;;
71148;SDS011;59072;42.144;25.200;2023-01-31T09:40:50;8.68;;;4.47;;
71148;SDS011;59072;42.144;25.200;2023-01-31T09:43:18;10.55;;;4.10;;
71148;SDS011;59072;42.144;25.200;2023-01-31T09:45:48;11.95;;;5.22;;
71148;SDS011;59072;42.144;25.200;2023-01-31T09:48:17;8.65;;;4.10;;
71148;SDS011;59072;42.144;25.200;2023-01-31T09:53:21;10.63;;;3.97;;
71148;SDS011;59072;42.144;25.200;2023-01-31T10:01:04;9.80;;;4.35;;
71148;SDS011;59072;42.144;25.200;2023-01-31T10:06:46;8.95;;;4.28;;
71148;SDS011;59072;42.144;25.200;2023-01-31T10:10:04;11.32;;;4.68;;
71148;SDS011;59072;42.144;25.200;2023-01-31T10:14:54;7.05;;;3.00;;
71148;SDS011;59072;42.144;25.200;2023-01-31T10:23:09;7.03;;;3.00;;
71148;SDS011;59072;42.144;25.200;2023-01-31T10:26:00;7.25;;;3.55;;
71148;SDS011;59072;42.144;25.200;2023-01-31T10:33:58;8.30;;;3.47;;
71148;SDS011;59072;42.144;25.200;2023-01-31T10:44:20;8.57;;;4.07;;
71148;SDS011;59072;42.144;25.200;2023-01-31T10:46:58;9.48;;;4.20;;
71148;SDS011;59072;42.144;25.200;2023-01-31T10:49:25;7.38;;;3.38;;
71148;SDS011;59072;42.144;25.200;2023-01-31T10:52:15;9.60;;;4.03;;
71148;SDS011;59072;42.144;25.200;2023-01-31T10:57:12;9.27;;;3.70;;
71148;SDS011;59072;42.144;25.200;2023-01-31T10:59:40;8.52;;;3.40;;
71148;SDS011;59072;42.144;25.200;2023-01-31T11:02:15;8.32;;;3.10;;
71148;SDS011;59072;42.144;25.200;2023-01-31T11:04:48;8.00;;;3.80;;
71148;SDS011;59072;42.144;25.200;2023-01-31T11:07:16;8.68;;;4.82;;
71148;SDS011;59072;42.144;25.200;2023-01-31T11:09:42;10.15;;;5.20;;
71148;SDS011;59072;42.144;25.200;2023-01-31T11:12:12;7.45;;;3.25;;
71148;SDS011;59072;42.144;25.200;2023-01-31T11:14:37;7.40;;;3.88;;
71148;SDS011;59072;42.144;25.200;2023-01-31T11:22:09;13.02;;;7.60;;
71148;SDS011;59072;42.144;25.200;2023-01-31T11:24:55;9.15;;;4.53;;
71148;SDS011;59072;42.144;25.200;2023-01-31T11:27:27;5.15;;;2.67;;
71148;SDS011;59072;42.144;25.200;2023-01-31T11:29:57;7.60;;;3.35;;
71148;SDS011;59072;42.144;25.200;2023-01-31T11:32:25;5.28;;;2.42;;
71148;SDS011;59072;42.144;25.200;2023-01-31T11:37:30;5.90;;;2.30;;
71148;SDS011;59072;42.144;25.200;2023-01-31T11:40:19;9.27;;;4.63;;
71148;SDS011;59072;42.144;25.200;2023-01-31T11:42:50;6.90;;;4.38;;
71148;SDS011;59072;42.144;25.200;2023-01-31T11:45:20;6.60;;;3.88;;
71148;SDS011;59072;42.144;25.200;2023-01-31T11:50:21;6.13;;;3.47;;
71148;SDS011;59072;42.144;25.200;2023-01-31T11:52:57;8.35;;;4.05;;
71148;SDS011;59072;42.144;25.200;2023-01-31T11:55:24;7.18;;;3.10;;
71148;SDS011;59072;42.144;25.200;2023-01-31T11:57:55;6.50;;;2.90;;
71148;SDS011;59072;42.144;25.200;2023-01-31T12:03:07;5.72;;;2.90;;
71148;SDS011;59072;42.144;25.200;2023-01-31T12:05:41;6.43;;;3.03;;
71148;SDS011;59072;42.144;25.200;2023-01-31T12:08:30;4.78;;;2.28;;
71148;SDS011;59072;42.144;25.200;2023-01-31T12:13:30;6.03;;;3.20;;
71148;SDS011;59072;42.144;25.200;2023-01-31T12:16:03;4.93;;;2.67;;
71148;SDS011;59072;42.144;25.200;2023-01-31T12:21:14;4.55;;;2.60;;
71148;SDS011;59072;42.144;25.200;2023-01-31T12:39:49;4.32;;;1.90;;
71148;SDS011;59072;42.144;25.200;2023-01-31T12:47:50;7.88;;;5.03;;
71148;SDS011;59072;42.144;25.200;2023-01-31T12:55:49;14.18;;;12.85;;
71148;SDS011;59072;42.144;25.200;2023-01-31T13:07:15;22.40;;;20.17;;
71148;SDS011;59072;42.144;25.200;2023-01-31T13:09:42;21.20;;;18.92;;
71148;SDS011;59072;42.144;25.200;2023-01-31T13:14:40;13.40;;;10.63;;
71148;SDS011;59072;42.144;25.200;2023-01-31T13:17:12;38.25;;;33.53;;
71148;SDS011;59072;42.144;25.200;2023-01-31T13:19:44;11.35;;;6.78;;
71148;SDS011;59072;42.144;25.200;2023-01-31T13:24:49;10.13;;;6.82;;
71148;SDS011;59072;42.144;25.200;2023-01-31T13:27:39;13.98;;;9.30;;
71148;SDS011;59072;42.144;25.200;2023-01-31T13:30:16;15.35;;;10.95;;
71148;SDS011;59072;42.144;25.200;2023-01-31T13:32:48;48.65;;;30.90;;
71148;SDS011;59072;42.144;25.200;2023-01-31T13:37:46;4.40;;;2.28;;
71148;SDS011;59072;42.144;25.200;2023-01-31T13:42:44;25.17;;;16.58;;
71148;SDS011;59072;42.144;25.200;2023-01-31T13:45:11;9.90;;;5.95;;
71148;SDS011;59072;42.144;25.200;2023-01-31T13:47:47;11.10;;;4.97;;
71148;SDS011;59072;42.144;25.200;2023-01-31T13:50:35;22.45;;;6.82;;
71148;SDS011;59072;42.144;25.200;2023-01-31T13:53:10;21.88;;;12.25;;
71148;SDS011;59072;42.144;25.200;2023-01-31T13:55:42;18.92;;;10.90;;
71148;SDS011;59072;42.144;25.200;2023-01-31T13:58:21;10.35;;;6.28;;
71148;SDS011;59072;42.144;25.200;2023-01-31T14:00:50;26.65;;;17.00;;
71148;SDS011;59072;42.144;25.200;2023-01-31T14:03:23;26.00;;;16.02;;
71148;SDS011;59072;42.144;25.200;2023-01-31T14:05:50;123.95;;;83.45;;
71148;SDS011;59072;42.144;25.200;2023-01-31T14:10:51;63.38;;;49.25;;
71148;SDS011;59072;42.144;25.200;2023-01-31T14:13:23;42.75;;;34.03;;
71148;SDS011;59072;42.144;25.200;2023-01-31T14:15:58;32.42;;;23.13;;
71148;SDS011;59072;42.144;25.200;2023-01-31T14:18:38;56.08;;;50.28;;
71148;SDS011;59072;42.144;25.200;2023-01-31T14:29:40;12.70;;;11.43;;
71148;SDS011;59072;42.144;25.200;2023-01-31T14:31:56;6.10;;;3.35;;
71148;SDS011;59072;42.144;25.200;2023-01-31T14:34:23;3.83;;;1.92;;
71148;SDS011;59072;42.144;25.200;2023-01-31T14:37:03;6.40;;;1.77;;
71148;SDS011;59072;42.144;25.200;2023-01-31T14:50:53;3.08;;;1.70;;
71148;SDS011;59072;42.144;25.200;2023-01-31T14:53:47;3.58;;;1.92;;
71148;SDS011;59072;42.144;25.200;2023-01-31T14:56:36;4.60;;;1.80;;
71148;SDS011;59072;42.144;25.200;2023-01-31T14:59:04;3.90;;;1.90;;
71148;SDS011;59072;42.144;25.200;2023-01-31T15:01:43;4.43;;;2.00;;
71148;SDS011;59072;42.144;25.200;2023-01-31T15:04:15;3.63;;;1.90;;
71148;SDS011;59072;42.144;25.200;2023-01-31T15:06:46;5.90;;;2.38;;
71148;SDS011;59072;42.144;25.200;2023-01-31T15:11:47;12.70;;;6.18;;
71148;SDS011;59072;42.144;25.200;2023-01-31T15:14:33;5.43;;;2.42;;
71148;SDS011;59072;42.144;25.200;2023-01-31T15:17:16;6.93;;;2.55;;
71148;SDS011;59072;42.144;25.200;2023-01-31T15:19:51;6.85;;;3.67;;
71148;SDS011;59072;42.144;25.200;2023-01-31T15:22:21;12.27;;;3.72;;
71148;SDS011;59072;42.144;25.200;2023-01-31T15:24:51;9.65;;;5.47;;
71148;SDS011;59072;42.144;25.200;2023-01-31T15:27:28;5.53;;;2.97;;
71148;SDS011;59072;42.144;25.200;2023-01-31T15:38:55;7.97;;;4.65;;
71148;SDS011;59072;42.144;25.200;2023-01-31T15:41:31;10.87;;;8.90;;
71148;SDS011;59072;42.144;25.200;2023-01-31T15:44:12;6.63;;;4.05;;
71148;SDS011;59072;42.144;25.200;2023-01-31T15:46:42;9.27;;;6.18;;
71148;SDS011;59072;42.144;25.200;2023-01-31T15:49:23;9.35;;;4.68;;
71148;SDS011;59072;42.144;25.200;2023-01-31T16:00:39;5.07;;;2.97;;
71148;SDS011;59072;42.144;25.200;2023-01-31T16:03:05;9.38;;;5.47;;
71148;SDS011;59072;42.144;25.200;2023-01-31T16:05:36;8.20;;;4.28;;
71148;SDS011;59072;42.144;25.200;2023-01-31T16:08:49;23.85;;;12.73;;
71148;SDS011;59072;42.144;25.200;2023-01-31T16:11:02;13.68;;;7.30;;
71148;SDS011;59072;42.144;25.200;2023-01-31T16:13:30;14.13;;;7.65;;
71148;SDS011;59072;42.144;25.200;2023-01-31T16:15:59;7.75;;;4.50;;
71148;SDS011;59072;42.144;25.200;2023-01-31T16:18:26;11.85;;;6.55;;
71148;SDS011;59072;42.144;25.200;2023-01-31T16:20:53;19.10;;;8.15;;
71148;SDS011;59072;42.144;25.200;2023-01-31T16:23:30;60.70;;;27.80;;
71148;SDS011;59072;42.144;25.200;2023-01-31T16:26:11;23.52;;;11.00;;
71148;SDS011;59072;42.144;25.200;2023-01-31T16:28:42;30.00;;;13.82;;
71148;SDS011;59072;42.144;25.200;2023-01-31T16:31:14;32.47;;;16.23;;
71148;SDS011;59072;42.144;25.200;2023-01-31T16:33:46;19.65;;;10.00;;
71148;SDS011;59072;42.144;25.200;2023-01-31T16:36:12;8.10;;;4.60;;
71148;SDS011;59072;42.144;25.200;2023-01-31T16:38:39;49.75;;;28.75;;
71148;SDS011;59072;42.144;25.200;2023-01-31T16:41:07;15.05;;;7.90;;
71148;SDS011;59072;42.144;25.200;2023-01-31T16:43:37;12.45;;;7.32;;
71148;SDS011;59072;42.144;25.200;2023-01-31T16:46:08;7.20;;;3.72;;
71148;SDS011;59072;42.144;25.200;2023-01-31T16:48:48;5.30;;;2.70;;
71148;SDS011;59072;42.144;25.200;2023-01-31T16:54:13;608.90;;;209.23;;
71148;SDS011;59072;42.144;25.200;2023-01-31T16:56:42;482.65;;;153.98;;
71148;SDS011;59072;42.144;25.200;2023-01-31T16:59:54;221.77;;;73.45;;
71148;SDS011;59072;42.144;25.200;2023-01-31T17:02:01;45.90;;;17.38;;
71148;SDS011;59072;42.144;25.200;2023-01-31T17:04:36;30.58;;;11.57;;
71148;SDS011;59072;42.144;25.200;2023-01-31T17:07:04;31.35;;;17.45;;
71148;SDS011;59072;42.144;25.200;2023-01-31T17:09:33;9.13;;;4.45;;
71148;SDS011;59072;42.144;25.200;2023-01-31T17:11:59;7.00;;;3.33;;
71148;SDS011;59072;42.144;25.200;2023-01-31T17:14:25;6.30;;;3.97;;
71148;SDS011;59072;42.144;25.200;2023-01-31T17:16:52;6.25;;;3.53;;
71148;SDS011;59072;42.144;25.200;2023-01-31T17:19:18;20.05;;;11.60;;
71148;SDS011;59072;42.144;25.200;2023-01-31T17:21:44;12.63;;;6.35;;
71148;SDS011;59072;42.144;25.200;2023-01-31T17:24:12;5.72;;;3.58;;
71148;SDS011;59072;42.144;25.200;2023-01-31T17:26:39;6.15;;;3.40;;
71148;SDS011;59072;42.144;25.200;2023-01-31T17:29:05;5.85;;;3.50;;
71148;SDS011;59072;42.144;25.200;2023-01-31T17:31:31;36.95;;;27.55;;
71148;SDS011;59072;42.144;25.200;2023-01-31T17:33:56;65.03;;;43.78;;
71148;SDS011;59072;42.144;25.200;2023-01-31T17:36:22;11.23;;;6.88;;
71148;SDS011;59072;42.144;25.200;2023-01-31T17:38:47;6.53;;;3.47;;
71148;SDS011;59072;42.144;25.200;2023-01-31T17:41:14;5.43;;;3.03;;